sensor_id;sensor_type;location;lat;lon;timestamp;pressure;altitude;pressure_sealevel;temperature;humidity
55590;BME280;41452;42.780;23.116;2023-04-28T00:00:48;94567.53;;;3.80;77.73
55590;BME280;41452;42.780;23.116;2023-04-28T00:03:13;94571.22;;;3.86;78.09
55590;BME280;41452;42.780;23.116;2023-04-28T00:05:39;94569.44;;;3.71;78.76
55590;BME280;41452;42.780;23.116;2023-04-28T00:08:05;94572.69;;;3.73;78.92
55590;BME280;41452;42.780;23.116;2023-04-28T00:10:30;94572.25;;;3.70;78.93
55590;BME280;41452;42.780;23.116;2023-04-28T00:12:56;94548.78;;;3.48;79.09
55590;BME280;41452;42.780;23.116;2023-04-28T00:15:21;94555.50;;;3.57;78.82
55590;BME280;41452;42.780;23.116;2023-04-28T00:17:47;94569.13;;;3.59;79.39
55590;BME280;41452;42.780;23.116;2023-04-28T00:20:12;94581.94;;;3.61;78.83
55590;BME280;41452;42.780;23.116;2023-04-28T00:22:38;94575.72;;;3.62;79.11
55590;BME280;41452;42.780;23.116;2023-04-28T00:25:04;94545.50;;;3.39;78.34
55590;BME280;41452;42.780;23.116;2023-04-28T00:27:31;94536.72;;;3.40;78.27
55590;BME280;41452;42.780;23.116;2023-04-28T00:29:57;94576.72;;;3.61;78.35
55590;BME280;41452;42.780;23.116;2023-04-28T00:32:22;94574.50;;;3.58;78.39
55590;BME280;41452;42.780;23.116;2023-04-28T00:34:47;94572.38;;;3.47;78.22
55590;BME280;41452;42.780;23.116;2023-04-28T00:37:13;94562.78;;;3.32;78.43
55590;BME280;41452;42.780;23.116;2023-04-28T00:39:38;94584.47;;;3.39;78.33
55590;BME280;41452;42.780;23.116;2023-04-28T00:42:05;94575.50;;;3.42;77.80
55590;BME280;41452;42.780;23.116;2023-04-28T00:44:31;94581.22;;;3.37;77.74
55590;BME280;41452;42.780;23.116;2023-04-28T00:46:57;94585.44;;;3.38;77.48
55590;BME280;41452;42.780;23.116;2023-04-28T00:49:24;94569.75;;;3.32;78.09
55590;BME280;41452;42.780;23.116;2023-04-28T00:51:50;94582.75;;;3.32;77.88
55590;BME280;41452;42.780;23.116;2023-04-28T00:54:15;94569.47;;;3.27;77.51
55590;BME280;41452;42.780;23.116;2023-04-28T00:56:42;94576.13;;;3.29;77.45
55590;BME280;41452;42.780;23.116;2023-04-28T00:59:07;94579.34;;;3.31;77.32
55590;BME280;41452;42.780;23.116;2023-04-28T01:01:34;94578.44;;;3.24;77.75
55590;BME280;41452;42.780;23.116;2023-04-28T01:04:00;94588.09;;;3.30;77.52
55590;BME280;41452;42.780;23.116;2023-04-28T01:06:26;94536.28;;;2.92;77.81
55590;BME280;41452;42.780;23.116;2023-04-28T01:08:53;94562.88;;;3.09;77.96
55590;BME280;41452;42.780;23.116;2023-04-28T01:11:18;94588.47;;;3.12;78.57
55590;BME280;41452;42.780;23.116;2023-04-28T01:13:44;94590.06;;;3.13;78.66
55590;BME280;41452;42.780;23.116;2023-04-28T01:16:09;94591.06;;;3.12;78.98
55590;BME280;41452;42.780;23.116;2023-04-28T01:18:35;94587.03;;;3.10;78.97
55590;BME280;41452;42.780;23.116;2023-04-28T01:21:01;94588.19;;;3.07;78.80
55590;BME280;41452;42.780;23.116;2023-04-28T01:23:28;94587.38;;;3.07;78.13
55590;BME280;41452;42.780;23.116;2023-04-28T01:25:54;94590.78;;;3.07;78.76
55590;BME280;41452;42.780;23.116;2023-04-28T01:28:19;94583.38;;;3.04;78.71
55590;BME280;41452;42.780;23.116;2023-04-28T01:30:45;94583.88;;;2.99;78.41
55590;BME280;41452;42.780;23.116;2023-04-28T01:33:10;94587.19;;;2.93;79.11
55590;BME280;41452;42.780;23.116;2023-04-28T01:35:35;94594.25;;;2.99;78.99
55590;BME280;41452;42.780;23.116;2023-04-28T01:38:01;94599.72;;;3.04;78.48
55590;BME280;41452;42.780;23.116;2023-04-28T01:40:26;94603.03;;;2.98;78.94
55590;BME280;41452;42.780;23.116;2023-04-28T01:42:52;94558.28;;;2.66;78.61
55590;BME280;41452;42.780;23.116;2023-04-28T01:45:17;94603.22;;;2.97;78.64
55590;BME280;41452;42.780;23.116;2023-04-28T01:47:43;94611.00;;;2.97;78.36
55590;BME280;41452;42.780;23.116;2023-04-28T01:50:08;94587.72;;;2.89;78.75
55590;BME280;41452;42.780;23.116;2023-04-28T01:52:33;94602.66;;;2.87;80.17
55590;BME280;41452;42.780;23.116;2023-04-28T01:54:59;94602.84;;;2.85;79.92
55590;BME280;41452;42.780;23.116;2023-04-28T01:57:24;94600.94;;;2.79;80.97
55590;BME280;41452;42.780;23.116;2023-04-28T01:59:50;94596.03;;;2.84;80.58
55590;BME280;41452;42.780;23.116;2023-04-28T02:02:16;94592.22;;;2.72;80.75
55590;BME280;41452;42.780;23.116;2023-04-28T02:04:41;94606.81;;;2.73;80.28
55590;BME280;41452;42.780;23.116;2023-04-28T02:07:06;94604.13;;;2.66;79.95
55590;BME280;41452;42.780;23.116;2023-04-28T02:09:32;94607.72;;;2.65;80.16
55590;BME280;41452;42.780;23.116;2023-04-28T02:11:58;94615.38;;;2.58;80.38
55590;BME280;41452;42.780;23.116;2023-04-28T02:14:24;94609.56;;;2.56;80.81
55590;BME280;41452;42.780;23.116;2023-04-28T02:16:50;94618.00;;;2.50;81.16
55590;BME280;41452;42.780;23.116;2023-04-28T02:19:15;94617.56;;;2.46;81.40
55590;BME280;41452;42.780;23.116;2023-04-28T02:21:41;94615.34;;;2.43;81.61
55590;BME280;41452;42.780;23.116;2023-04-28T02:24:07;94618.75;;;2.36;81.89
55590;BME280;41452;42.780;23.116;2023-04-28T02:26:33;94622.28;;;2.43;81.52
55590;BME280;41452;42.780;23.116;2023-04-28T02:28:58;94620.09;;;2.32;81.46
55590;BME280;41452;42.780;23.116;2023-04-28T02:31:24;94629.31;;;2.34;81.57
55590;BME280;41452;42.780;23.116;2023-04-28T02:33:49;94625.28;;;2.32;81.58
55590;BME280;41452;42.780;23.116;2023-04-28T02:36:15;94571.13;;;1.90;81.68
55590;BME280;41452;42.780;23.116;2023-04-28T02:38:40;94605.88;;;2.04;81.99
55590;BME280;41452;42.780;23.116;2023-04-28T02:41:06;94623.91;;;2.21;82.43
55590;BME280;41452;42.780;23.116;2023-04-28T02:43:34;94635.34;;;2.26;81.98
55590;BME280;41452;42.780;23.116;2023-04-28T02:46:01;94631.66;;;2.21;81.78
55590;BME280;41452;42.780;23.116;2023-04-28T02:48:27;94639.09;;;2.24;81.78
55590;BME280;41452;42.780;23.116;2023-04-28T02:50:52;94620.88;;;2.09;81.71
55590;BME280;41452;42.780;23.116;2023-04-28T02:53:18;94644.00;;;2.19;81.92
55590;BME280;41452;42.780;23.116;2023-04-28T02:55:44;94643.06;;;2.12;82.40
55590;BME280;41452;42.780;23.116;2023-04-28T02:58:09;94619.00;;;1.95;82.37
55590;BME280;41452;42.780;23.116;2023-04-28T03:00:35;94646.44;;;2.12;82.51
55590;BME280;41452;42.780;23.116;2023-04-28T03:03:01;94627.75;;;1.94;82.42
55590;BME280;41452;42.780;23.116;2023-04-28T03:05:26;94641.31;;;2.04;82.45
55590;BME280;41452;42.780;23.116;2023-04-28T03:07:52;94652.59;;;2.11;82.98
55590;BME280;41452;42.780;23.116;2023-04-28T03:10:18;94647.09;;;2.14;82.36
55590;BME280;41452;42.780;23.116;2023-04-28T03:12:43;94644.81;;;2.11;82.47
55590;BME280;41452;42.780;23.116;2023-04-28T03:15:09;94644.88;;;2.03;81.94
55590;BME280;41452;42.780;23.116;2023-04-28T03:17:35;94646.19;;;1.99;82.34
55590;BME280;41452;42.780;23.116;2023-04-28T03:20:03;94654.16;;;1.97;82.28
55590;BME280;41452;42.780;23.116;2023-04-28T03:22:29;94658.84;;;1.94;82.98
55590;BME280;41452;42.780;23.116;2023-04-28T03:24:54;94659.19;;;1.90;83.64
55590;BME280;41452;42.780;23.116;2023-04-28T03:27:19;94611.91;;;1.57;83.42
55590;BME280;41452;42.780;23.116;2023-04-28T03:29:45;94616.28;;;1.57;83.91
55590;BME280;41452;42.780;23.116;2023-04-28T03:32:11;94674.75;;;1.82;84.00
55590;BME280;41452;42.780;23.116;2023-04-28T03:34:36;94655.75;;;1.59;83.80
55590;BME280;41452;42.780;23.116;2023-04-28T03:37:02;94682.53;;;1.74;84.43
55590;BME280;41452;42.780;23.116;2023-04-28T03:39:27;94665.44;;;1.65;84.36
55590;BME280;41452;42.780;23.116;2023-04-28T03:41:53;94694.38;;;1.77;85.18
55590;BME280;41452;42.780;23.116;2023-04-28T03:44:18;94675.66;;;1.58;85.50
55590;BME280;41452;42.780;23.116;2023-04-28T03:46:43;94696.00;;;1.78;85.03
55590;BME280;41452;42.780;23.116;2023-04-28T03:49:09;94701.97;;;1.78;85.17
55590;BME280;41452;42.780;23.116;2023-04-28T03:51:34;94692.94;;;1.66;85.03
55590;BME280;41452;42.780;23.116;2023-04-28T03:53:59;94703.25;;;1.74;85.56
55590;BME280;41452;42.780;23.116;2023-04-28T03:56:25;94712.97;;;1.80;85.82
55590;BME280;41452;42.780;23.116;2023-04-28T03:58:51;94716.03;;;1.84;85.62
55590;BME280;41452;42.780;23.116;2023-04-28T04:01:16;94709.56;;;1.80;86.10
55590;BME280;41452;42.780;23.116;2023-04-28T04:03:41;94688.41;;;1.68;86.55
55590;BME280;41452;42.780;23.116;2023-04-28T04:06:07;94705.19;;;1.80;86.96
55590;BME280;41452;42.780;23.116;2023-04-28T04:08:32;94711.97;;;1.89;86.53
55590;BME280;41452;42.780;23.116;2023-04-28T04:10:58;94720.03;;;1.95;86.45
55590;BME280;41452;42.780;23.116;2023-04-28T04:13:23;94710.63;;;1.94;86.33
55590;BME280;41452;42.780;23.116;2023-04-28T04:15:49;94681.56;;;1.75;87.08
55590;BME280;41452;42.780;23.116;2023-04-28T04:18:16;94721.63;;;2.04;87.21
55590;BME280;41452;42.780;23.116;2023-04-28T04:20:42;94728.56;;;2.12;86.81
55590;BME280;41452;42.780;23.116;2023-04-28T04:23:07;94705.75;;;2.07;86.52
55590;BME280;41452;42.780;23.116;2023-04-28T04:25:32;94726.53;;;2.30;85.64
55590;BME280;41452;42.780;23.116;2023-04-28T04:27:59;94719.72;;;2.29;85.56
55590;BME280;41452;42.780;23.116;2023-04-28T04:30:24;94729.19;;;2.45;85.10
55590;BME280;41452;42.780;23.116;2023-04-28T04:32:50;94726.56;;;2.53;83.91
55590;BME280;41452;42.780;23.116;2023-04-28T04:35:15;94703.06;;;2.55;83.39
55590;BME280;41452;42.780;23.116;2023-04-28T04:37:41;94726.88;;;2.81;84.34
55590;BME280;41452;42.780;23.116;2023-04-28T04:40:07;94735.41;;;2.90;84.76
55590;BME280;41452;42.780;23.116;2023-04-28T04:42:32;94742.28;;;3.06;81.64
55590;BME280;41452;42.780;23.116;2023-04-28T04:44:58;94749.53;;;3.11;80.63
55590;BME280;41452;42.780;23.116;2023-04-28T04:47:23;94743.19;;;3.13;80.62
55590;BME280;41452;42.780;23.116;2023-04-28T04:49:49;94742.16;;;3.22;80.34
55590;BME280;41452;42.780;23.116;2023-04-28T04:52:15;94749.88;;;3.31;79.60
55590;BME280;41452;42.780;23.116;2023-04-28T04:54:40;94736.63;;;3.26;78.85
55590;BME280;41452;42.780;23.116;2023-04-28T04:57:06;94750.06;;;3.44;79.88
55590;BME280;41452;42.780;23.116;2023-04-28T04:59:32;94760.22;;;3.54;80.73
55590;BME280;41452;42.780;23.116;2023-04-28T05:01:57;94760.31;;;3.60;79.41
55590;BME280;41452;42.780;23.116;2023-04-28T05:04:22;94757.19;;;3.65;78.40
55590;BME280;41452;42.780;23.116;2023-04-28T05:06:48;94708.16;;;3.32;78.76
55590;BME280;41452;42.780;23.116;2023-04-28T05:09:13;94758.88;;;3.73;78.11
55590;BME280;41452;42.780;23.116;2023-04-28T05:11:39;94762.22;;;3.81;79.33
55590;BME280;41452;42.780;23.116;2023-04-28T05:14:05;94766.16;;;3.92;79.35
55590;BME280;41452;42.780;23.116;2023-04-28T05:16:30;94758.75;;;4.04;78.42
55590;BME280;41452;42.780;23.116;2023-04-28T05:18:56;94761.88;;;4.14;76.86
55590;BME280;41452;42.780;23.116;2023-04-28T05:21:21;94746.53;;;4.05;76.50
55590;BME280;41452;42.780;23.116;2023-04-28T05:23:46;94764.03;;;4.26;75.70
55590;BME280;41452;42.780;23.116;2023-04-28T05:26:12;94760.94;;;4.37;75.00
55590;BME280;41452;42.780;23.116;2023-04-28T05:28:41;94760.88;;;4.45;75.85
55590;BME280;41452;42.780;23.116;2023-04-28T05:31:07;94767.56;;;4.54;74.82
55590;BME280;41452;42.780;23.116;2023-04-28T05:33:32;94763.63;;;4.59;75.01
55590;BME280;41452;42.780;23.116;2023-04-28T05:35:58;94766.13;;;4.67;75.30
55590;BME280;41452;42.780;23.116;2023-04-28T05:38:24;94708.06;;;4.30;73.65
55590;BME280;41452;42.780;23.116;2023-04-28T05:40:49;94734.44;;;4.63;72.96
55590;BME280;41452;42.780;23.116;2023-04-28T05:43:15;94755.50;;;4.83;71.82
55590;BME280;41452;42.780;23.116;2023-04-28T05:45:40;94762.81;;;4.94;75.04
55590;BME280;41452;42.780;23.116;2023-04-28T05:48:05;94726.06;;;4.83;74.87
55590;BME280;41452;42.780;23.116;2023-04-28T05:50:31;94745.78;;;5.13;75.49
55590;BME280;41452;42.780;23.116;2023-04-28T05:52:56;94758.97;;;5.33;73.38
55590;BME280;41452;42.780;23.116;2023-04-28T05:55:22;94755.59;;;5.40;72.83
55590;BME280;41452;42.780;23.116;2023-04-28T05:57:47;94759.31;;;5.52;72.54
55590;BME280;41452;42.780;23.116;2023-04-28T06:00:13;94766.41;;;5.58;68.22
55590;BME280;41452;42.780;23.116;2023-04-28T06:02:39;94752.28;;;5.46;66.78
55590;BME280;41452;42.780;23.116;2023-04-28T06:05:04;94740.81;;;5.40;67.57
55590;BME280;41452;42.780;23.116;2023-04-28T06:07:30;94759.81;;;5.62;68.32
55590;BME280;41452;42.780;23.116;2023-04-28T06:09:55;94755.44;;;5.69;68.54
55590;BME280;41452;42.780;23.116;2023-04-28T06:12:20;94748.59;;;5.68;66.86
55590;BME280;41452;42.780;23.116;2023-04-28T06:14:46;94761.75;;;5.82;65.92
55590;BME280;41452;42.780;23.116;2023-04-28T06:17:11;94766.19;;;5.88;65.40
55590;BME280;41452;42.780;23.116;2023-04-28T06:19:37;94764.09;;;5.98;65.71
55590;BME280;41452;42.780;23.116;2023-04-28T06:22:02;94706.16;;;5.75;65.49
55590;BME280;41452;42.780;23.116;2023-04-28T06:24:27;94761.44;;;6.26;67.81
55590;BME280;41452;42.780;23.116;2023-04-28T06:26:53;94764.28;;;6.32;64.60
55590;BME280;41452;42.780;23.116;2023-04-28T06:29:18;94758.09;;;6.39;64.82
55590;BME280;41452;42.780;23.116;2023-04-28T06:31:44;94762.34;;;6.54;64.75
55590;BME280;41452;42.780;23.116;2023-04-28T06:34:10;94759.00;;;6.60;65.26
55590;BME280;41452;42.780;23.116;2023-04-28T06:36:35;94763.22;;;6.61;63.62
55590;BME280;41452;42.780;23.116;2023-04-28T06:39:01;94756.00;;;6.70;64.36
55590;BME280;41452;42.780;23.116;2023-04-28T06:41:26;94758.59;;;6.70;63.12
55590;BME280;41452;42.780;23.116;2023-04-28T06:43:53;94767.47;;;6.75;65.19
55590;BME280;41452;42.780;23.116;2023-04-28T06:46:18;94768.53;;;6.94;63.49
55590;BME280;41452;42.780;23.116;2023-04-28T06:48:44;94760.88;;;6.86;61.04
55590;BME280;41452;42.780;23.116;2023-04-28T06:51:09;94767.91;;;6.92;61.27
55590;BME280;41452;42.780;23.116;2023-04-28T06:53:35;94770.53;;;6.92;59.98
55590;BME280;41452;42.780;23.116;2023-04-28T06:56:01;94761.72;;;6.93;60.45
55590;BME280;41452;42.780;23.116;2023-04-28T06:58:27;94770.19;;;7.15;60.95
55590;BME280;41452;42.780;23.116;2023-04-28T07:00:52;94764.56;;;7.32;60.51
55590;BME280;41452;42.780;23.116;2023-04-28T07:03:18;94744.88;;;7.22;61.35
55590;BME280;41452;42.780;23.116;2023-04-28T07:05:45;94762.56;;;7.40;59.29
55590;BME280;41452;42.780;23.116;2023-04-28T07:08:10;94766.22;;;7.53;59.74
55590;BME280;41452;42.780;23.116;2023-04-28T07:10:36;94766.63;;;7.70;59.17
55590;BME280;41452;42.780;23.116;2023-04-28T07:13:01;94760.19;;;7.72;58.12
55590;BME280;41452;42.780;23.116;2023-04-28T07:15:27;94764.63;;;7.78;59.40
55590;BME280;41452;42.780;23.116;2023-04-28T07:17:52;94754.53;;;7.95;59.17
55590;BME280;41452;42.780;23.116;2023-04-28T07:20:18;94750.28;;;8.08;57.14
55590;BME280;41452;42.780;23.116;2023-04-28T07:22:43;94763.94;;;8.10;55.74
55590;BME280;41452;42.780;23.116;2023-04-28T07:25:09;94755.34;;;7.89;55.77
55590;BME280;41452;42.780;23.116;2023-04-28T07:27:34;94758.13;;;8.14;56.48
55590;BME280;41452;42.780;23.116;2023-04-28T07:30:00;94754.66;;;8.27;55.49
55590;BME280;41452;42.780;23.116;2023-04-28T07:32:25;94748.63;;;8.33;57.21
55590;BME280;41452;42.780;23.116;2023-04-28T07:34:50;94751.59;;;8.50;56.52
55590;BME280;41452;42.780;23.116;2023-04-28T07:37:16;94749.97;;;8.56;55.75
55590;BME280;41452;42.780;23.116;2023-04-28T07:39:42;94752.78;;;8.61;54.98
55590;BME280;41452;42.780;23.116;2023-04-28T07:42:08;94756.75;;;8.70;52.45
55590;BME280;41452;42.780;23.116;2023-04-28T07:44:34;94749.53;;;8.72;53.02
55590;BME280;41452;42.780;23.116;2023-04-28T07:46:59;94756.72;;;8.77;54.31
55590;BME280;41452;42.780;23.116;2023-04-28T07:49:27;94741.19;;;8.82;52.31
55590;BME280;41452;42.780;23.116;2023-04-28T07:51:52;94735.78;;;8.77;50.63
55590;BME280;41452;42.780;23.116;2023-04-28T07:54:19;94755.84;;;8.90;50.32
55590;BME280;41452;42.780;23.116;2023-04-28T07:56:45;94758.59;;;9.08;52.32
55590;BME280;41452;42.780;23.116;2023-04-28T07:59:10;94752.56;;;9.08;49.21
55590;BME280;41452;42.780;23.116;2023-04-28T08:01:36;94735.28;;;8.93;49.62
55590;BME280;41452;42.780;23.116;2023-04-28T08:04:01;94749.47;;;9.18;51.93
55590;BME280;41452;42.780;23.116;2023-04-28T08:06:26;94753.22;;;9.28;49.57
55590;BME280;41452;42.780;23.116;2023-04-28T08:08:52;94755.06;;;9.28;48.67
55590;BME280;41452;42.780;23.116;2023-04-28T08:11:17;94753.97;;;9.36;48.66
55590;BME280;41452;42.780;23.116;2023-04-28T08:13:43;94748.69;;;9.42;48.63
55590;BME280;41452;42.780;23.116;2023-04-28T08:16:08;94729.50;;;9.17;47.89
55590;BME280;41452;42.780;23.116;2023-04-28T08:18:34;94732.47;;;9.27;50.31
55590;BME280;41452;42.780;23.116;2023-04-28T08:20:59;94746.88;;;9.68;53.06
55590;BME280;41452;42.780;23.116;2023-04-28T08:23:24;94753.38;;;9.65;48.27
55590;BME280;41452;42.780;23.116;2023-04-28T08:25:52;94738.06;;;9.62;48.22
55590;BME280;41452;42.780;23.116;2023-04-28T08:28:18;94750.25;;;9.75;51.27
55590;BME280;41452;42.780;23.116;2023-04-28T08:30:43;94762.94;;;9.78;47.77
55590;BME280;41452;42.780;23.116;2023-04-28T08:33:08;94749.78;;;9.85;49.90
55590;BME280;41452;42.780;23.116;2023-04-28T08:35:34;94746.78;;;9.56;51.27
55590;BME280;41452;42.780;23.116;2023-04-28T08:37:59;94712.41;;;9.64;49.81
55590;BME280;41452;42.780;23.116;2023-04-28T08:40:25;94727.84;;;9.79;48.85
55590;BME280;41452;42.780;23.116;2023-04-28T08:42:51;94751.00;;;10.07;46.86
55590;BME280;41452;42.780;23.116;2023-04-28T08:45:16;94724.13;;;10.05;52.32
55590;BME280;41452;42.780;23.116;2023-04-28T08:47:42;94743.25;;;10.38;48.18
55590;BME280;41452;42.780;23.116;2023-04-28T08:50:12;94743.28;;;10.50;46.24
55590;BME280;41452;42.780;23.116;2023-04-28T08:52:39;94740.81;;;10.55;46.86
55590;BME280;41452;42.780;23.116;2023-04-28T08:55:10;94735.63;;;10.67;48.51
55590;BME280;41452;42.780;23.116;2023-04-28T08:57:38;94725.03;;;10.18;46.09
55590;BME280;41452;42.780;23.116;2023-04-28T09:00:07;94731.00;;;10.50;48.71
55590;BME280;41452;42.780;23.116;2023-04-28T09:02:32;94725.13;;;10.67;47.89
55590;BME280;41452;42.780;23.116;2023-04-28T09:04:58;94732.41;;;10.83;47.75
55590;BME280;41452;42.780;23.116;2023-04-28T09:07:23;94703.63;;;10.88;51.66
55590;BME280;41452;42.780;23.116;2023-04-28T09:09:49;94729.38;;;11.28;47.32
55590;BME280;41452;42.780;23.116;2023-04-28T09:12:14;94711.66;;;11.35;47.24
55590;BME280;41452;42.780;23.116;2023-04-28T09:14:40;94699.53;;;11.34;42.33
55590;BME280;41452;42.780;23.116;2023-04-28T09:17:12;94713.94;;;11.44;44.93
55590;BME280;41452;42.780;23.116;2023-04-28T09:19:39;94717.06;;;11.52;45.79
55590;BME280;41452;42.780;23.116;2023-04-28T09:22:07;94719.72;;;11.64;46.07
55590;BME280;41452;42.780;23.116;2023-04-28T09:24:34;94716.16;;;11.70;47.40
55590;BME280;41452;42.780;23.116;2023-04-28T09:27:02;94713.06;;;11.50;46.61
55590;BME280;41452;42.780;23.116;2023-04-28T09:29:30;94706.56;;;11.64;45.83
55590;BME280;41452;42.780;23.116;2023-04-28T09:32:12;94702.31;;;11.51;44.26
55590;BME280;41452;42.780;23.116;2023-04-28T09:34:46;94700.81;;;11.44;45.76
55590;BME280;41452;42.780;23.116;2023-04-28T09:37:21;94697.63;;;11.65;47.69
55590;BME280;41452;42.780;23.116;2023-04-28T09:39:48;94697.09;;;11.87;49.30
55590;BME280;41452;42.780;23.116;2023-04-28T09:42:37;94687.84;;;11.96;44.35
55590;BME280;41452;42.780;23.116;2023-04-28T09:45:04;94659.53;;;11.56;44.00
55590;BME280;41452;42.780;23.116;2023-04-28T09:47:31;94687.91;;;11.66;42.05
55590;BME280;41452;42.780;23.116;2023-04-28T09:50:05;94687.00;;;11.72;42.76
55590;BME280;41452;42.780;23.116;2023-04-28T09:52:33;94694.47;;;11.98;45.63
55590;BME280;41452;42.780;23.116;2023-04-28T09:57:29;94673.03;;;12.18;45.01
55590;BME280;41452;42.780;23.116;2023-04-28T09:59:56;94670.72;;;12.34;44.56
55590;BME280;41452;42.780;23.116;2023-04-28T10:02:23;94676.19;;;12.44;43.58
55590;BME280;41452;42.780;23.116;2023-04-28T10:04:49;94662.72;;;12.58;44.85
55590;BME280;41452;42.780;23.116;2023-04-28T10:07:17;94671.25;;;12.77;42.58
55590;BME280;41452;42.780;23.116;2023-04-28T10:09:44;94665.06;;;12.83;41.13
55590;BME280;41452;42.780;23.116;2023-04-28T10:12:24;94673.28;;;12.86;40.60
55590;BME280;41452;42.780;23.116;2023-04-28T10:14:50;94667.53;;;12.89;40.79
55590;BME280;41452;42.780;23.116;2023-04-28T10:17:20;94671.78;;;12.90;42.22
55590;BME280;41452;42.780;23.116;2023-04-28T10:19:49;94657.31;;;12.93;42.10
55590;BME280;41452;42.780;23.116;2023-04-28T10:27:39;94633.16;;;13.13;42.58
55590;BME280;41452;42.780;23.116;2023-04-28T10:30:16;94646.81;;;13.27;40.86
55590;BME280;41452;42.780;23.116;2023-04-28T10:32:42;94637.06;;;13.27;42.47
55590;BME280;41452;42.780;23.116;2023-04-28T10:40:33;94638.78;;;13.50;41.29
55590;BME280;41452;42.780;23.116;2023-04-28T10:42:59;94634.94;;;13.58;39.43
55590;BME280;41452;42.780;23.116;2023-04-28T10:48:19;94609.88;;;13.78;41.71
55590;BME280;41452;42.780;23.116;2023-04-28T10:58:40;94616.97;;;13.38;38.25
55590;BME280;41452;42.780;23.116;2023-04-28T11:03:57;94602.94;;;13.55;38.85
55590;BME280;41452;42.780;23.116;2023-04-28T11:06:40;94610.47;;;13.63;38.21
55590;BME280;41452;42.780;23.116;2023-04-28T11:17:02;94593.16;;;12.87;40.90
55590;BME280;41452;42.780;23.116;2023-04-28T11:19:32;94588.25;;;13.42;41.77
55590;BME280;41452;42.780;23.116;2023-04-28T11:22:00;94582.00;;;13.48;41.38
55590;BME280;41452;42.780;23.116;2023-04-28T11:24:27;94563.94;;;13.57;39.85
55590;BME280;41452;42.780;23.116;2023-04-28T11:26:54;94566.31;;;13.75;37.76
55590;BME280;41452;42.780;23.116;2023-04-28T11:31:58;94555.63;;;14.09;41.26
55590;BME280;41452;42.780;23.116;2023-04-28T11:34:24;94569.22;;;14.23;38.48
55590;BME280;41452;42.780;23.116;2023-04-28T11:36:49;94567.59;;;14.17;35.92
55590;BME280;41452;42.780;23.116;2023-04-28T11:39:15;94567.16;;;14.25;38.44
55590;BME280;41452;42.780;23.116;2023-04-28T11:41:43;94574.69;;;14.38;38.79
55590;BME280;41452;42.780;23.116;2023-04-28T11:44:13;94514.53;;;14.18;40.07
55590;BME280;41452;42.780;23.116;2023-04-28T11:46:52;94538.00;;;14.42;36.52
55590;BME280;41452;42.780;23.116;2023-04-28T11:49:22;94548.81;;;14.62;37.26
55590;BME280;41452;42.780;23.116;2023-04-28T11:51:53;94557.38;;;14.53;37.92
55590;BME280;41452;42.780;23.116;2023-04-28T11:56:46;94554.75;;;14.53;37.75
55590;BME280;41452;42.780;23.116;2023-04-28T11:59:12;94557.22;;;14.59;37.88
55590;BME280;41452;42.780;23.116;2023-04-28T12:04:14;94550.69;;;14.67;37.86
55590;BME280;41452;42.780;23.116;2023-04-28T12:07:07;94524.59;;;14.76;38.93
55590;BME280;41452;42.780;23.116;2023-04-28T12:09:35;94547.88;;;15.11;37.60
55590;BME280;41452;42.780;23.116;2023-04-28T12:12:06;94533.44;;;15.29;37.15
55590;BME280;41452;42.780;23.116;2023-04-28T12:14:52;94539.69;;;15.50;38.90
55590;BME280;41452;42.780;23.116;2023-04-28T12:17:30;94527.22;;;15.46;34.20
55590;BME280;41452;42.780;23.116;2023-04-28T12:19:58;94532.16;;;15.32;34.06
55590;BME280;41452;42.780;23.116;2023-04-28T12:22:24;94532.88;;;15.22;36.25
55590;BME280;41452;42.780;23.116;2023-04-28T12:25:07;94529.84;;;15.40;34.90
55590;BME280;41452;42.780;23.116;2023-04-28T12:27:34;94530.78;;;15.24;35.88
55590;BME280;41452;42.780;23.116;2023-04-28T12:30:00;94523.41;;;15.31;36.63
55590;BME280;41452;42.780;23.116;2023-04-28T12:32:39;94531.19;;;15.06;36.75
55590;BME280;41452;42.780;23.116;2023-04-28T12:35:06;94524.72;;;15.29;37.61
55590;BME280;41452;42.780;23.116;2023-04-28T12:37:31;94518.47;;;15.45;38.62
55590;BME280;41452;42.780;23.116;2023-04-28T12:39:57;94513.47;;;15.49;36.42
55590;BME280;41452;42.780;23.116;2023-04-28T12:42:22;94510.06;;;15.53;34.42
55590;BME280;41452;42.780;23.116;2023-04-28T12:44:48;94512.19;;;15.56;35.02
55590;BME280;41452;42.780;23.116;2023-04-28T12:47:15;94503.25;;;15.68;36.51
55590;BME280;41452;42.780;23.116;2023-04-28T12:49:42;94465.09;;;15.58;36.38
55590;BME280;41452;42.780;23.116;2023-04-28T12:52:09;94494.09;;;15.91;34.44
55590;BME280;41452;42.780;23.116;2023-04-28T12:54:34;94499.13;;;15.92;33.59
55590;BME280;41452;42.780;23.116;2023-04-28T12:57:01;94505.38;;;15.71;31.78
55590;BME280;41452;42.780;23.116;2023-04-28T12:59:27;94493.66;;;15.56;33.97
55590;BME280;41452;42.780;23.116;2023-04-28T13:01:53;94468.16;;;15.40;34.50
55590;BME280;41452;42.780;23.116;2023-04-28T13:04:19;94497.84;;;15.42;35.10
55590;BME280;41452;42.780;23.116;2023-04-28T13:06:45;94480.63;;;15.02;36.18
55590;BME280;41452;42.780;23.116;2023-04-28T13:09:11;94478.34;;;15.16;36.79
55590;BME280;41452;42.780;23.116;2023-04-28T13:11:37;94484.56;;;15.37;35.08
55590;BME280;41452;42.780;23.116;2023-04-28T13:14:04;94489.34;;;15.45;34.73
55590;BME280;41452;42.780;23.116;2023-04-28T13:16:29;94489.63;;;15.49;37.70
55590;BME280;41452;42.780;23.116;2023-04-28T13:18:55;94467.13;;;15.41;37.20
55590;BME280;41452;42.780;23.116;2023-04-28T13:21:23;94478.00;;;15.50;32.72
55590;BME280;41452;42.780;23.116;2023-04-28T13:23:49;94480.34;;;15.41;35.63
55590;BME280;41452;42.780;23.116;2023-04-28T13:26:14;94475.97;;;15.14;32.99
55590;BME280;41452;42.780;23.116;2023-04-28T13:28:39;94473.34;;;15.19;34.64
55590;BME280;41452;42.780;23.116;2023-04-28T13:31:05;94470.50;;;15.31;35.00
55590;BME280;41452;42.780;23.116;2023-04-28T13:33:31;94487.50;;;15.40;34.52
55590;BME280;41452;42.780;23.116;2023-04-28T13:35:57;94471.13;;;15.49;33.31